Time;durP1;ratioP1;P1;durP2;ratioP2;P2;SDS_P1;SDS_P2;PMS_P1;PMS_P2;Temp;Humidity;BMP_temperature;BMP_pressure;BME280_temperature;BME280_humidity;BME280_pressure;Samples;Min_cycle;Max_cycle;Signal;HPM_P1;HPM_P2
2022/01/13 00:01:08;;;;;;;15.50;10.23;;;3.20;99.90;;;;;;5080645;28;20217;-63
2022/01/13 00:03:34;;;;;;;11.65;8.75;;;3.20;99.90;;;;;;5079389;28;20266;-63
2022/01/13 00:06:01;;;;;;;20.63;8.85;;;3.20;99.90;;;;;;5077622;28;20625;-64
2022/01/13 00:08:28;;;;;;;12.40;9.93;;;3.20;99.90;;;;;;5069986;28;20805;-62
2022/01/13 00:10:54;;;;;;;10.02;7.68;;;3.20;99.90;;;;;;5069426;28;20289;-63
2022/01/13 00:13:25;;;;;;;13.65;9.15;;;3.10;99.90;;;;;;5080033;28;20675;-63
2022/01/13 00:16:22;;;;;;;16.25;10.13;;;3.20;99.90;;;;;;5074694;28;20200;-63
2022/01/13 00:18:48;;;;;;;12.82;10.15;;;3.20;99.90;;;;;;5076086;28;20225;-63
2022/01/13 00:21:17;;;;;;;10.25;8.68;;;3.10;99.90;;;;;;5084874;28;20273;-63
2022/01/13 00:23:46;;;;;;;19.35;12.15;;;3.20;99.90;;;;;;5080100;28;20213;-63
2022/01/13 00:26:19;;;;;;;15.52;9.95;;;3.20;99.90;;;;;;5075629;28;20209;-63
2022/01/13 00:28:48;;;;;;;16.10;10.88;;;3.20;99.90;;;;;;5077838;28;20228;-63
2022/01/13 00:31:18;;;;;;;15.30;12.18;;;3.20;99.90;;;;;;5075583;28;20209;-63
2022/01/13 00:33:47;;;;;;;15.18;12.15;;;3.20;99.90;;;;;;5086304;28;20196;-63
2022/01/13 00:36:14;;;;;;;18.23;10.98;;;3.20;99.90;;;;;;5083823;28;20217;-63
2022/01/13 00:38:41;;;;;;;14.80;12.25;;;3.20;99.90;;;;;;5075892;28;20322;-63
2022/01/13 00:41:08;;;;;;;14.63;10.13;;;3.20;99.90;;;;;;5074924;28;20237;-63
2022/01/13 00:43:39;;;;;;;16.60;10.57;;;3.20;99.90;;;;;;5077055;28;20201;-63
2022/01/13 00:46:06;;;;;;;19.95;11.82;;;3.20;99.90;;;;;;5073706;28;20681;-63
2022/01/13 00:48:33;;;;;;;17.13;12.98;;;3.20;99.90;;;;;;5074905;28;20580;-63
2022/01/13 00:51:01;;;;;;;17.17;11.27;;;3.20;99.90;;;;;;5087744;28;20721;-63
2022/01/13 00:53:27;;;;;;;17.30;10.05;;;3.20;99.90;;;;;;5077185;28;20247;-63
2022/01/13 00:56:00;;;;;;;12.88;10.77;;;3.20;99.90;;;;;;5073651;28;20671;-63
2022/01/13 00:58:27;;;;;;;17.30;11.70;;;3.20;99.90;;;;;;5074004;28;20247;-63
2022/01/13 01:00:54;;;;;;;14.93;10.82;;;3.20;99.90;;;;;;5084842;28;20282;-64
2022/01/13 01:03:21;;;;;;;12.90;9.80;;;3.20;99.90;;;;;;5091119;28;20204;-63
2022/01/13 01:05:49;;;;;;;11.05;9.95;;;3.20;99.90;;;;;;5073401;28;20284;-63
2022/01/13 01:08:17;;;;;;;18.83;12.18;;;3.20;99.90;;;;;;5089003;28;20221;-63
2022/01/13 01:10:45;;;;;;;19.85;13.98;;;3.20;99.90;;;;;;5085082;28;20356;-63
2022/01/13 01:13:14;;;;;;;18.25;12.32;;;3.20;99.90;;;;;;5084880;28;20219;-63
2022/01/13 01:15:46;;;;;;;14.07;11.23;;;3.20;99.90;;;;;;5084203;28;20201;-62
2022/01/13 01:18:24;;;;;;;13.00;9.10;;;3.20;99.90;;;;;;5084837;28;20201;-63
2022/01/13 01:21:04;;;;;;;14.75;10.93;;;3.20;99.90;;;;;;5073776;28;20307;-63
2022/01/13 01:23:37;;;;;;;18.42;12.70;;;3.20;99.90;;;;;;5078450;28;20284;-64
2022/01/13 01:26:08;;;;;;;14.60;10.73;;;3.20;99.90;;;;;;5079109;28;20204;-64
2022/01/13 01:28:43;;;;;;;20.05;12.07;;;3.20;99.90;;;;;;5078075;28;20217;-63
2022/01/13 01:31:12;;;;;;;15.73;10.90;;;3.20;99.90;;;;;;5078253;28;20220;-63
2022/01/13 01:33:43;;;;;;;11.20;8.88;;;3.20;99.90;;;;;;5089680;28;20197;-63
2022/01/13 01:36:13;;;;;;;12.70;11.23;;;3.30;99.90;;;;;;5090374;28;20234;-62
2022/01/13 01:38:45;;;;;;;16.42;10.45;;;3.30;99.90;;;;;;5089247;28;20274;-63
2022/01/13 01:41:12;;;;;;;22.25;11.15;;;3.30;99.90;;;;;;5074282;28;20260;-64
2022/01/13 01:43:39;;;;;;;12.23;10.88;;;3.20;99.90;;;;;;5083670;28;20193;-63
2022/01/13 01:46:05;;;;;;;20.38;11.88;;;3.20;99.90;;;;;;5077787;28;20754;-63
2022/01/13 01:48:35;;;;;;;15.55;10.30;;;3.30;99.90;;;;;;5089366;28;20785;-63
2022/01/13 01:51:04;;;;;;;18.73;10.35;;;3.30;99.90;;;;;;5089521;28;20197;-63
2022/01/13 01:53:31;;;;;;;16.58;9.35;;;3.30;99.90;;;;;;5090034;28;20246;-62
2022/01/13 01:55:59;;;;;;;11.60;8.93;;;3.30;99.90;;;;;;5083568;28;20265;-62
2022/01/13 01:58:27;;;;;;;17.20;11.20;;;3.30;99.90;;;;;;5089974;28;20270;-63
2022/01/13 02:00:54;;;;;;;13.95;10.75;;;3.30;99.90;;;;;;5085081;28;20221;-64
2022/01/13 02:03:22;;;;;;;17.65;11.00;;;3.30;99.90;;;;;;5090505;28;20262;-63
2022/01/13 02:05:49;;;;;;;14.07;9.40;;;3.20;99.90;;;;;;5090088;28;20207;-63
2022/01/13 02:08:16;;;;;;;17.13;11.60;;;3.20;99.90;;;;;;5085565;28;20800;-64
2022/01/13 02:10:44;;;;;;;13.23;10.38;;;3.20;99.90;;;;;;5088993;28;20532;-62
2022/01/13 02:13:18;;;;;;;13.35;8.32;;;3.20;99.90;;;;;;5088955;28;20262;-63
2022/01/13 02:16:00;;;;;;;12.25;9.65;;;3.20;99.90;;;;;;5090568;28;20716;-62
2022/01/13 02:18:30;;;;;;;8.70;6.68;;;3.10;99.90;;;;;;5090212;28;20277;-62
2022/01/13 02:20:59;;;;;;;12.98;9.20;;;3.10;99.90;;;;;;5084551;28;20224;-64
2022/01/13 02:23:31;;;;;;;13.57;9.63;;;3.10;99.90;;;;;;5086346;28;20286;-64
2022/01/13 02:25:58;;;;;;;17.20;8.60;;;3.20;99.90;;;;;;5079786;28;20205;-63
2022/01/13 02:28:25;;;;;;;14.15;9.45;;;3.10;99.90;;;;;;5087853;28;20228;-64
2022/01/13 02:30:51;;;;;;;13.90;9.88;;;3.10;99.90;;;;;;5086020;28;20200;-63
2022/01/13 02:33:18;;;;;;;15.73;9.93;;;3.20;99.90;;;;;;5072169;28;20254;-64
2022/01/13 02:35:45;;;;;;;12.68;10.63;;;3.20;99.90;;;;;;5081422;28;20616;-63
2022/01/13 02:38:13;;;;;;;12.82;10.02;;;3.20;99.90;;;;;;5085036;28;20197;-62
2022/01/13 02:40:41;;;;;;;15.82;10.60;;;3.20;99.90;;;;;;5079932;28;20273;-63
2022/01/13 02:43:08;;;;;;;12.00;10.07;;;3.20;99.90;;;;;;5076052;28;20623;-62
2022/01/13 02:45:38;;;;;;;17.95;10.98;;;3.10;99.90;;;;;;5089226;28;20201;-63
2022/01/13 02:48:27;;;;;;;14.75;9.38;;;3.10;99.90;;;;;;5089541;28;20573;-63
2022/01/13 02:50:54;;;;;;;11.27;9.27;;;3.10;99.90;;;;;;5085973;28;20204;-62
2022/01/13 02:53:23;;;;;;;15.70;8.75;;;3.10;99.90;;;;;;5079173;28;20626;-64
2022/01/13 02:55:50;;;;;;;15.40;9.90;;;3.10;99.90;;;;;;5070057;28;20209;-63
2022/01/13 02:58:18;;;;;;;14.95;11.00;;;3.10;99.90;;;;;;5073638;28;20342;-63
2022/01/13 03:00:45;;;;;;;14.60;10.27;;;3.10;99.90;;;;;;5077831;28;20666;-64
2022/01/13 03:03:13;;;;;;;16.33;11.32;;;3.20;99.90;;;;;;5088225;28;20199;-64
2022/01/13 03:05:40;;;;;;;15.00;10.60;;;3.20;99.90;;;;;;5084273;28;20204;-64
2022/01/13 03:08:08;;;;;;;21.45;13.40;;;3.10;99.90;;;;;;5087910;28;20200;-62
2022/01/13 03:10:36;;;;;;;16.17;11.15;;;3.10;99.90;;;;;;5078086;28;20213;-64
2022/01/13 03:13:04;;;;;;;17.55;12.35;;;3.10;99.90;;;;;;5069889;28;20254;-62
2022/01/13 03:15:30;;;;;;;15.20;11.55;;;3.00;99.90;;;;;;5075856;28;20197;-63
2022/01/13 03:17:57;;;;;;;14.48;11.68;;;2.90;99.90;;;;;;5075500;28;20197;-63
2022/01/13 03:20:24;;;;;;;14.27;10.15;;;2.80;99.90;;;;;;5085987;28;20254;-63
2022/01/13 03:22:50;;;;;;;13.45;9.82;;;2.70;99.90;;;;;;5089618;28;20632;-63
2022/01/13 03:25:21;;;;;;;16.95;11.48;;;2.70;99.90;;;;;;5087010;28;20204;-62
2022/01/13 03:27:53;;;;;;;13.02;10.50;;;2.70;99.90;;;;;;5084229;28;20222;-64
2022/01/13 03:30:20;;;;;;;12.65;9.20;;;2.60;99.90;;;;;;5080751;28;20200;-64
2022/01/13 03:32:47;;;;;;;17.80;10.45;;;2.70;99.90;;;;;;5077938;28;20231;-63
2022/01/13 03:35:14;;;;;;;13.48;9.88;;;2.70;99.90;;;;;;5089543;28;20323;-63
2022/01/13 03:37:41;;;;;;;15.82;9.95;;;2.70;99.90;;;;;;5082976;28;20208;-62
2022/01/13 03:40:09;;;;;;;12.32;10.10;;;2.70;99.90;;;;;;5077437;28;20224;-62
2022/01/13 03:42:36;;;;;;;17.23;11.75;;;2.80;99.90;;;;;;5074706;28;20286;-62
2022/01/13 03:45:04;;;;;;;14.65;11.55;;;2.80;99.90;;;;;;5082017;28;20205;-62
2022/01/13 03:47:31;;;;;;;17.02;13.15;;;2.70;99.90;;;;;;5081057;28;20220;-63
2022/01/13 03:49:57;;;;;;;18.90;12.30;;;2.70;99.90;;;;;;5087381;28;20235;-62
2022/01/13 03:52:54;;;;;;;11.13;9.15;;;2.70;99.90;;;;;;5088350;28;20261;-63
2022/01/13 03:55:57;;;;;;;14.10;11.07;;;2.70;99.90;;;;;;5089092;28;20208;-64
2022/01/13 03:58:59;;;;;;;10.23;8.13;;;2.60;99.90;;;;;;5083108;28;20220;-63
2022/01/13 04:02:00;;;;;;;16.13;9.73;;;2.70;99.90;;;;;;5079411;28;20224;-63
2022/01/13 04:04:28;;;;;;;13.13;8.77;;;2.70;99.90;;;;;;5074114;28;20725;-63
2022/01/13 04:07:25;;;;;;;17.15;9.43;;;2.70;99.90;;;;;;5081564;28;20250;-62
2022/01/13 04:10:26;;;;;;;10.32;8.10;;;2.70;99.90;;;;;;5068358;28;20224;-62
2022/01/13 04:12:53;;;;;;;11.02;7.85;;;2.70;99.90;;;;;;5079528;28;20271;-63
2022/01/13 04:15:21;;;;;;;18.05;9.45;;;2.80;99.90;;;;;;5084737;28;20209;-64
2022/01/13 04:17:49;;;;;;;10.32;7.57;;;2.80;99.90;;;;;;5076062;28;20206;-63
2022/01/13 04:20:16;;;;;;;15.73;11.85;;;2.80;99.90;;;;;;5077272;28;20249;-63
2022/01/13 04:22:43;;;;;;;17.02;9.02;;;2.80;99.90;;;;;;5080325;28;20225;-62
2022/01/13 04:25:10;;;;;;;11.55;8.52;;;2.80;99.90;;;;;;5086493;28;20743;-62
2022/01/13 04:27:41;;;;;;;12.85;9.63;;;2.80;99.90;;;;;;5078361;28;20270;-62
2022/01/13 04:30:33;;;;;;;15.13;10.88;;;2.80;99.90;;;;;;5084985;28;20229;-63
2022/01/13 04:33:02;;;;;;;10.52;9.02;;;2.80;99.90;;;;;;5085696;28;20445;-62
2022/01/13 04:35:28;;;;;;;11.45;10.25;;;2.80;99.90;;;;;;5083522;28;20708;-64
2022/01/13 04:37:55;;;;;;;13.65;9.02;;;2.70;99.90;;;;;;5090435;28;20208;-63
2022/01/13 04:40:22;;;;;;;11.00;8.32;;;2.70;99.90;;;;;;5091626;28;20254;-63
2022/01/13 04:42:53;;;;;;;20.05;10.48;;;2.70;99.90;;;;;;5087492;28;20225;-64
2022/01/13 04:45:21;;;;;;;12.95;9.35;;;2.60;99.90;;;;;;5078376;28;20200;-64
2022/01/13 04:47:48;;;;;;;12.90;10.90;;;2.60;99.90;;;;;;5092111;28;20224;-63
2022/01/13 04:50:16;;;;;;;17.38;9.77;;;2.60;99.90;;;;;;5101756;22;20732;-65
2022/01/13 04:52:43;;;;;;;19.50;11.30;;;2.60;99.90;;;;;;5093504;28;20188;-66
2022/01/13 04:55:12;;;;;;;20.73;8.82;;;2.60;99.90;;;;;;5091467;28;20208;-66
2022/01/13 04:57:40;;;;;;;16.02;8.73;;;2.60;99.90;;;;;;5074024;28;20615;-66
2022/01/13 05:00:09;;;;;;;14.40;10.27;;;2.60;99.90;;;;;;5075928;28;20221;-65
2022/01/13 05:02:36;;;;;;;13.93;10.18;;;2.60;99.90;;;;;;5067870;28;20274;-65
2022/01/13 05:05:02;;;;;;;19.67;10.32;;;2.50;99.90;;;;;;5069111;28;20202;-66
2022/01/13 05:07:31;;;;;;;15.35;10.23;;;2.60;99.90;;;;;;5068887;28;20696;-66
2022/01/13 05:09:57;;;;;;;15.23;9.90;;;2.60;99.90;;;;;;5068629;28;20225;-65
2022/01/13 05:12:29;;;;;;;15.73;11.43;;;2.60;99.90;;;;;;5068235;28;20658;-68
2022/01/13 05:15:01;;;;;;;12.30;9.20;;;2.70;99.90;;;;;;5069042;28;20265;-65
2022/01/13 05:20:36;;;;;;;12.40;9.55;;;2.60;99.90;;;;;;4990126;28;20233;-65
2022/01/13 05:23:05;;;;;;;18.73;11.35;;;2.60;99.90;;;;;;4982395;28;20220;-66
2022/01/13 05:25:31;;;;;;;16.98;9.15;;;2.70;99.90;;;;;;5028062;28;20205;-64
2022/01/13 05:27:58;;;;;;;13.10;10.23;;;2.60;99.90;;;;;;5068659;28;20262;-65
2022/01/13 05:30:25;;;;;;;20.48;11.23;;;2.60;99.90;;;;;;5066769;28;20271;-66
2022/01/13 05:32:53;;;;;;;16.88;10.95;;;2.50;99.90;;;;;;5067212;28;20280;-68
2022/01/13 05:35:21;;;;;;;24.35;11.18;;;2.50;99.90;;;;;;5068608;28;20209;-66
2022/01/13 05:37:47;;;;;;;13.65;8.45;;;2.50;99.90;;;;;;5067657;28;20209;-66
2022/01/13 05:40:16;;;;;;;16.83;9.93;;;2.50;99.90;;;;;;5067540;28;20275;-64
2022/01/13 05:42:43;;;;;;;14.27;9.23;;;2.50;99.90;;;;;;5070154;28;20229;-68
2022/01/13 05:45:15;;;;;;;19.73;12.73;;;2.50;99.90;;;;;;5068726;28;20255;-66
2022/01/13 05:47:42;;;;;;;15.77;11.23;;;2.40;99.90;;;;;;5068739;28;20297;-65
2022/01/13 05:50:10;;;;;;;16.88;14.43;;;2.50;99.90;;;;;;5066834;28;20726;-65
2022/01/13 05:52:36;;;;;;;19.40;11.48;;;2.40;99.90;;;;;;5070057;28;20215;-68
2022/01/13 05:55:04;;;;;;;14.35;9.77;;;2.40;99.90;;;;;;5065650;28;20205;-66
2022/01/13 05:57:32;;;;;;;16.65;10.50;;;2.50;99.90;;;;;;5070770;28;20215;-64
2022/01/13 05:59:58;;;;;;;14.90;10.65;;;2.50;99.90;;;;;;5072118;28;20715;-67
2022/01/13 06:02:25;;;;;;;18.10;11.02;;;2.50;99.90;;;;;;5067909;28;20220;-65
2022/01/13 06:04:52;;;;;;;23.90;11.38;;;2.50;99.90;;;;;;5070337;28;20674;-66
2022/01/13 06:07:18;;;;;;;19.02;10.82;;;2.50;99.90;;;;;;5070660;28;20209;-66
2022/01/13 06:09:45;;;;;;;14.50;9.35;;;2.50;99.90;;;;;;5071495;28;20706;-65
2022/01/13 06:12:12;;;;;;;16.33;9.65;;;2.40;99.90;;;;;;5070533;28;20779;-68
2022/01/13 06:14:40;;;;;;;19.77;11.80;;;2.40;99.90;;;;;;5068862;28;20231;-66
2022/01/13 06:17:06;;;;;;;17.77;10.32;;;2.40;99.90;;;;;;5071754;28;20635;-66
2022/01/13 06:19:33;;;;;;;18.85;14.02;;;2.40;99.90;;;;;;5068937;28;20602;-65
2022/01/13 06:21:59;;;;;;;15.15;10.60;;;2.40;99.90;;;;;;5068905;28;20720;-66
2022/01/13 06:24:26;;;;;;;16.83;9.50;;;2.40;99.90;;;;;;5064928;28;20232;-67
2022/01/13 06:26:53;;;;;;;19.08;11.27;;;2.30;99.90;;;;;;5060641;28;20210;-70
2022/01/13 06:29:20;;;;;;;15.95;11.38;;;2.20;99.90;;;;;;5071485;28;20310;-66
2022/01/13 06:31:48;;;;;;;19.10;13.30;;;2.30;99.90;;;;;;5069726;28;20198;-68
2022/01/13 06:34:14;;;;;;;14.60;10.50;;;2.20;99.90;;;;;;5074185;28;20365;-67
2022/01/13 06:36:41;;;;;;;19.58;9.75;;;2.20;99.90;;;;;;5071533;28;20233;-66
2022/01/13 06:39:08;;;;;;;16.77;9.63;;;2.20;99.90;;;;;;5078378;28;20225;-67
2022/01/13 06:41:39;;;;;;;18.40;10.55;;;2.20;99.90;;;;;;5070750;28;20212;-67
2022/01/13 06:44:05;;;;;;;17.17;10.77;;;2.20;99.90;;;;;;5068099;28;20259;-68
2022/01/13 06:46:32;;;;;;;15.65;10.10;;;2.20;99.90;;;;;;5067745;28;20979;-66
2022/01/13 06:49:00;;;;;;;13.20;9.23;;;2.20;99.90;;;;;;5067020;28;20321;-67
2022/01/13 06:51:27;;;;;;;11.73;10.02;;;2.20;99.90;;;;;;5067614;28;20209;-66
2022/01/13 06:53:53;;;;;;;13.00;8.80;;;2.20;99.90;;;;;;5060053;28;20205;-67
2022/01/13 06:56:21;;;;;;;12.82;10.02;;;2.20;99.90;;;;;;5063026;28;20208;-67
2022/01/13 06:58:49;;;;;;;17.20;10.70;;;2.20;99.90;;;;;;5064362;28;20282;-67
2022/01/13 07:01:16;;;;;;;15.38;11.10;;;2.20;99.90;;;;;;5063395;28;20267;-68
2022/01/13 07:03:43;;;;;;;17.67;11.93;;;2.20;99.90;;;;;;5076523;28;20220;-65
2022/01/13 07:06:11;;;;;;;18.13;10.70;;;2.20;99.90;;;;;;5065053;28;20228;-69
2022/01/13 07:08:37;;;;;;;19.20;13.00;;;2.20;99.90;;;;;;5068942;28;20220;-67
2022/01/13 07:11:04;;;;;;;10.77;8.27;;;2.20;99.90;;;;;;5068653;28;20231;-67
2022/01/13 07:13:31;;;;;;;24.50;11.27;;;2.10;99.90;;;;;;5071622;28;20201;-66
2022/01/13 07:16:00;;;;;;;15.68;9.50;;;2.10;99.90;;;;;;5077533;28;20259;-68
2022/01/13 07:18:27;;;;;;;15.45;9.88;;;2.10;99.90;;;;;;5076221;28;20310;-69
2022/01/13 07:20:54;;;;;;;12.70;7.43;;;2.10;99.90;;;;;;5073181;28;20251;-67
2022/01/13 07:23:22;;;;;;;18.58;10.90;;;2.10;99.90;;;;;;5071899;28;20241;-69
2022/01/13 07:25:49;;;;;;;11.70;10.05;;;2.10;99.90;;;;;;5070476;28;20224;-68
2022/01/13 07:28:16;;;;;;;12.18;8.48;;;2.10;99.90;;;;;;5067463;28;20240;-68
2022/01/13 07:30:43;;;;;;;12.80;9.63;;;2.10;99.90;;;;;;5066232;28;20682;-70
2022/01/13 07:33:09;;;;;;;16.52;9.45;;;2.10;99.90;;;;;;5067032;28;20209;-68
2022/01/13 07:35:36;;;;;;;17.92;10.95;;;2.10;99.90;;;;;;5076683;28;20098;-68
2022/01/13 07:38:03;;;;;;;12.52;8.88;;;2.10;99.90;;;;;;5067271;28;20204;-71
2022/01/13 07:40:31;;;;;;;20.70;11.00;;;2.10;99.90;;;;;;5080069;28;20221;-68
2022/01/13 07:42:57;;;;;;;11.38;8.95;;;2.10;99.90;;;;;;5068188;28;20217;-68
2022/01/13 07:45:24;;;;;;;16.15;8.55;;;2.10;99.90;;;;;;5067908;28;20209;-68
2022/01/13 07:47:51;;;;;;;18.48;10.10;;;2.10;99.90;;;;;;5071774;28;20202;-68
2022/01/13 07:50:17;;;;;;;14.65;10.05;;;2.00;99.90;;;;;;5084207;28;20306;-64
2022/01/13 07:52:44;;;;;;;12.65;9.70;;;2.00;99.90;;;;;;5077570;28;20631;-70
2022/01/13 07:55:12;;;;;;;12.57;6.57;;;2.00;99.90;;;;;;5073612;28;20382;-68
2022/01/13 07:57:40;;;;;;;10.63;9.60;;;2.10;99.90;;;;;;5086350;28;20200;-64
2022/01/13 08:00:09;;;;;;;14.00;10.38;;;2.00;99.90;;;;;;5081766;28;20653;-69
2022/01/13 08:02:36;;;;;;;15.55;9.50;;;2.00;99.90;;;;;;5078360;28;20575;-69
2022/01/13 08:05:03;;;;;;;10.68;9.32;;;2.00;99.90;;;;;;5069424;28;20197;-69
2022/01/13 08:07:30;;;;;;;13.95;9.60;;;2.00;99.90;;;;;;5067444;28;20208;-69
2022/01/13 08:09:57;;;;;;;12.07;7.82;;;2.00;99.90;;;;;;5080288;28;20774;-68
2022/01/13 08:12:23;;;;;;;9.63;7.25;;;2.00;99.90;;;;;;5078591;28;20205;-67
2022/01/13 08:14:51;;;;;;;14.68;9.70;;;2.00;99.90;;;;;;5085198;28;20299;-67
2022/01/13 08:19:45;;;;;;;9.40;8.48;;;2.00;99.90;;;;;;5072084;28;20201;-69
2022/01/13 08:20:07;;;;;;;10.05;7.35;;;2.00;99.90;;;;;;5075698;28;20246;-68
2022/01/13 08:22:34;;;;;;;14.38;8.63;;;2.00;99.90;;;;;;5081422;28;20597;-68
2022/01/13 08:25:02;;;;;;;13.40;7.35;;;2.00;99.90;;;;;;5079256;28;20197;-67
2022/01/13 08:27:28;;;;;;;9.95;8.05;;;2.00;99.90;;;;;;5074166;28;20262;-68
2022/01/13 08:29:56;;;;;;;13.27;8.00;;;2.00;99.90;;;;;;5073604;28;20279;-66
2022/01/13 08:32:24;;;;;;;10.30;8.20;;;2.00;99.90;;;;;;5072602;28;20275;-69
2022/01/13 08:34:50;;;;;;;13.00;11.70;;;2.00;99.90;;;;;;5075821;28;20702;-68
2022/01/13 08:37:17;;;;;;;12.32;9.07;;;2.00;99.90;;;;;;5065849;28;20650;-68
2022/01/13 08:39:45;;;;;;;13.57;8.77;;;2.00;99.90;;;;;;5068461;28;20221;-69
2022/01/13 08:42:12;;;;;;;16.30;6.88;;;2.00;99.90;;;;;;5064711;28;20206;-68
2022/01/13 08:44:39;;;;;;;16.33;8.80;;;2.00;99.90;;;;;;5070949;28;20670;-69
2022/01/13 08:47:09;;;;;;;17.48;8.07;;;2.00;99.90;;;;;;5079520;28;20236;-68
2022/01/13 08:49:36;;;;;;;13.68;7.70;;;2.00;99.90;;;;;;5066241;28;20237;-68
2022/01/13 08:52:04;;;;;;;14.32;9.68;;;2.00;99.90;;;;;;5065874;28;20211;-67
2022/01/13 08:54:30;;;;;;;11.50;8.30;;;2.00;99.90;;;;;;5067092;28;20201;-68
2022/01/13 08:56:58;;;;;;;12.25;7.90;;;1.90;99.90;;;;;;5072797;28;20226;-68
2022/01/13 08:59:24;;;;;;;13.52;8.40;;;1.90;99.90;;;;;;5079093;28;20249;-68
2022/01/13 09:01:51;;;;;;;12.75;8.15;;;2.00;99.90;;;;;;5085863;28;20259;-68
2022/01/13 09:04:19;;;;;;;10.90;8.23;;;2.00;99.90;;;;;;5081350;28;20225;-68
2022/01/13 09:06:46;;;;;;;8.98;8.02;;;2.00;99.90;;;;;;5074262;28;20574;-69
2022/01/13 09:09:14;;;;;;;9.90;8.25;;;2.10;99.90;;;;;;5068546;28;20282;-68
2022/01/13 09:11:41;;;;;;;16.00;9.05;;;2.10;99.90;;;;;;5068770;28;20301;-68
2022/01/13 09:14:07;;;;;;;19.38;9.85;;;2.20;99.90;;;;;;5070730;28;20213;-68
2022/01/13 09:16:41;;;;;;;18.23;8.10;;;2.20;99.90;;;;;;5078184;28;20736;-69
2022/01/13 09:19:12;;;;;;;12.43;7.93;;;2.20;99.90;;;;;;5075106;28;20552;-68
2022/01/13 09:21:43;;;;;;;13.35;9.40;;;2.20;99.90;;;;;;5084381;28;20278;-68
2022/01/13 09:24:12;;;;;;;12.65;10.70;;;2.30;99.90;;;;;;5082230;28;20213;-68
2022/01/13 09:26:39;;;;;;;10.00;7.45;;;2.30;99.90;;;;;;5096654;28;20277;-68
2022/01/13 09:29:07;;;;;;;9.73;7.70;;;2.30;99.90;;;;;;5077350;28;20730;-68
2022/01/13 09:31:35;;;;;;;96.03;67.43;;;2.30;99.90;;;;;;5080924;28;20636;-67
2022/01/13 09:34:02;;;;;;;14.98;10.15;;;2.40;99.90;;;;;;5067612;28;20186;-67
2022/01/13 09:36:29;;;;;;;14.30;9.10;;;2.40;99.90;;;;;;5088809;28;20206;-69
2022/01/13 09:38:58;;;;;;;11.88;8.40;;;2.50;99.90;;;;;;5096353;28;20219;-70
2022/01/13 09:41:26;;;;;;;13.40;8.07;;;2.60;99.90;;;;;;5083430;28;20232;-66
2022/01/13 09:43:53;;;;;;;13.75;11.32;;;2.70;99.90;;;;;;5098509;28;20230;-67
2022/01/13 09:46:20;;;;;;;9.82;7.93;;;2.80;99.90;;;;;;5095182;28;20239;-67
2022/01/13 09:48:47;;;;;;;9.23;7.80;;;2.90;99.90;;;;;;5091348;28;20284;-67
2022/01/13 09:51:14;;;;;;;16.80;10.75;;;2.90;99.90;;;;;;5092023;28;20224;-67
2022/01/13 09:53:40;;;;;;;9.07;7.03;;;2.80;99.90;;;;;;5089651;28;20185;-68
2022/01/13 09:56:10;;;;;;;13.20;7.82;;;2.90;99.90;;;;;;5090805;28;20213;-67
2022/01/13 09:58:37;;;;;;;14.05;9.52;;;3.00;99.90;;;;;;5090891;28;20232;-67
2022/01/13 10:01:04;;;;;;;14.88;9.38;;;3.10;99.90;;;;;;5090938;28;20203;-67
2022/01/13 10:03:31;;;;;;;15.73;8.48;;;3.30;99.90;;;;;;5089233;28;20221;-67
2022/01/13 10:06:01;;;;;;;13.18;9.60;;;3.40;99.90;;;;;;5073825;28;20205;-67
2022/01/13 10:08:41;;;;;;;13.70;9.50;;;3.50;99.90;;;;;;5084806;28;20690;-73
2022/01/13 10:11:24;;;;;;;11.52;8.70;;;3.60;99.90;;;;;;5078067;28;20201;-67
2022/01/13 10:14:12;;;;;;;19.98;12.40;;;3.70;99.90;;;;;;5072576;28;20255;-69
2022/01/13 10:16:44;;;;;;;15.50;8.85;;;3.80;99.90;;;;;;5067020;28;20220;-67
2022/01/13 10:19:29;;;;;;;15.40;9.43;;;3.80;99.90;;;;;;5069709;28;20312;-67
2022/01/13 10:21:58;;;;;;;14.77;8.68;;;3.90;99.90;;;;;;5071239;28;20639;-71
2022/01/13 10:24:26;;;;;;;13.90;8.60;;;4.20;99.90;;;;;;5080395;28;20221;-66
2022/01/13 10:27:00;;;;;;;15.00;10.15;;;4.40;99.90;;;;;;5071853;28;20220;-72
2022/01/13 10:29:40;;;;;;;14.05;8.30;;;4.70;99.90;;;;;;5068995;28;20241;-68
2022/01/13 10:32:08;;;;;;;14.63;10.52;;;4.90;99.90;;;;;;5069014;28;20216;-66
2022/01/13 10:34:38;;;;;;;14.10;9.05;;;5.00;99.90;;;;;;5086860;28;20189;-66
2022/01/13 10:37:10;;;;;;;12.05;9.45;;;5.20;99.90;;;;;;5085716;28;20254;-67
2022/01/13 10:39:49;;;;;;;14.38;8.30;;;5.40;99.90;;;;;;5076867;28;20713;-67
2022/01/13 10:42:45;;;;;;;15.98;9.85;;;5.60;99.90;;;;;;5075807;28;20200;-68
2022/01/13 10:45:14;;;;;;;9.35;7.18;;;5.80;99.90;;;;;;5069579;28;20231;-68
2022/01/13 10:47:49;;;;;;;8.85;6.90;;;6.00;99.90;;;;;;5072113;28;20209;-71
2022/01/13 10:50:16;;;;;;;15.05;9.95;;;6.10;99.90;;;;;;5092240;22;20680;-72
2022/01/13 10:52:42;;;;;;;12.68;8.50;;;6.30;99.90;;;;;;5072696;28;20262;-70
2022/01/13 10:55:12;;;;;;;11.48;7.82;;;6.30;99.90;;;;;;5089445;28;20200;-63
2022/01/13 10:57:42;;;;;;;14.32;9.50;;;6.30;99.90;;;;;;5075956;28;20205;-63
2022/01/13 11:00:20;;;;;;;10.52;7.80;;;6.50;99.90;;;;;;5072216;28;20315;-63
2022/01/13 11:02:49;;;;;;;12.88;8.77;;;6.60;99.90;;;;;;5078686;28;20205;-64
2022/01/13 11:05:15;;;;;;;17.25;10.98;;;6.70;99.90;;;;;;5078429;28;20504;-65
2022/01/13 11:07:43;;;;;;;10.93;8.02;;;6.80;99.90;;;;;;5072661;28;20444;-63
2022/01/13 11:10:10;;;;;;;13.10;8.93;;;6.70;99.90;;;;;;5066180;28;20318;-65
2022/01/13 11:12:42;;;;;;;14.73;8.90;;;6.70;99.90;;;;;;5082130;28;20278;-63
2022/01/13 11:15:14;;;;;;;13.10;9.02;;;6.70;99.90;;;;;;5068827;28;20224;-63
2022/01/13 11:17:43;;;;;;;14.35;8.05;;;6.80;99.90;;;;;;5069145;28;20194;-64
2022/01/13 11:20:12;;;;;;;11.90;7.80;;;6.80;99.90;;;;;;5068769;28;20710;-63
2022/01/13 11:22:41;;;;;;;10.57;8.05;;;6.90;99.90;;;;;;5068923;28;20216;-65
2022/01/13 11:25:10;;;;;;;11.07;7.82;;;6.90;99.90;;;;;;5068969;28;20232;-65
2022/01/13 11:27:38;;;;;;;13.15;9.52;;;6.80;99.90;;;;;;5081780;28;20636;-63
2022/01/13 11:30:09;;;;;;;11.85;9.65;;;6.80;99.90;;;;;;5069037;28;20233;-64
2022/01/13 11:32:36;;;;;;;13.20;7.97;;;6.90;99.90;;;;;;5069520;28;20205;-63
2022/01/13 11:35:04;;;;;;;13.52;7.68;;;7.00;99.90;;;;;;5069642;28;20210;-62
2022/01/13 11:37:31;;;;;;;12.23;8.98;;;7.00;99.90;;;;;;5083687;28;20258;-63
2022/01/13 11:39:58;;;;;;;10.40;8.60;;;7.10;99.90;;;;;;5077100;28;20216;-63
2022/01/13 11:42:25;;;;;;;13.02;8.55;;;7.10;99.90;;;;;;5073541;28;20263;-69
2022/01/13 11:45:12;;;;;;;14.55;8.95;;;7.00;99.90;;;;;;5069891;28;20730;-68
2022/01/13 11:47:39;;;;;;;13.90;10.02;;;6.90;99.90;;;;;;5073549;28;20212;-65
2022/01/13 11:50:18;;;;;;;11.50;8.25;;;6.90;99.90;;;;;;5078030;28;20241;-65
2022/01/13 11:52:50;;;;;;;13.18;9.02;;;6.90;99.90;;;;;;5069071;28;20205;-66
2022/01/13 11:55:25;;;;;;;9.85;6.75;;;6.90;99.90;;;;;;5062107;28;20694;-64
2022/01/13 11:57:53;;;;;;;14.40;8.07;;;7.00;99.90;;;;;;5069478;28;20201;-64
2022/01/13 12:00:29;;;;;;;10.68;8.43;;;7.10;99.90;;;;;;5067810;28;20221;-65
2022/01/13 12:02:57;;;;;;;9.18;7.13;;;7.10;99.90;;;;;;5057868;28;20871;-64
2022/01/13 12:05:26;;;;;;;13.30;7.10;;;7.30;99.90;;;;;;5068968;28;20275;-65
2022/01/13 12:07:55;;;;;;;9.40;6.22;;;7.50;99.90;;;;;;5069178;28;20568;-65
2022/01/13 12:10:58;;;;;;;10.10;7.30;;;7.50;99.90;;;;;;5068406;28;20225;-64
2022/01/13 12:13:37;;;;;;;9.97;6.90;;;7.80;99.90;;;;;;5069798;28;20894;-64
2022/01/13 12:16:06;;;;;;;9.30;6.67;;;8.10;99.90;;;;;;5071326;28;20470;-64
2022/01/13 12:19:04;;;;;;;10.47;8.33;;;8.30;99.90;;;;;;5072497;28;20458;-64
2022/01/13 12:21:34;;;;;;;11.57;7.57;;;8.80;99.90;;;;;;5066836;28;20529;-65
2022/01/13 12:24:02;;;;;;;9.60;7.97;;;9.10;99.90;;;;;;5074610;28;20483;-64
2022/01/13 12:26:56;;;;;;;12.07;7.60;;;9.40;99.90;;;;;;5072359;28;20455;-64
2022/01/13 12:29:27;;;;;;;11.77;8.57;;;9.70;99.90;;;;;;5058235;28;20513;-66
2022/01/13 12:32:00;;;;;;;10.07;8.17;;;9.90;99.90;;;;;;5070427;28;20467;-64
2022/01/13 12:34:51;;;;;;;8.90;6.40;;;10.10;99.90;;;;;;5063812;28;20442;-64
2022/01/13 12:37:27;;;;;;;10.00;6.83;;;10.30;99.90;;;;;;5074292;28;20455;-64
2022/01/13 12:39:58;;;;;;;13.80;8.60;;;10.40;99.90;;;;;;5074244;28;20512;-64
2022/01/13 12:42:33;;;;;;;9.37;7.37;;;10.60;99.90;;;;;;5074992;28;20769;-65
2022/01/13 12:47:46;;;;;;;11.70;7.57;;;10.80;99.90;;;;;;5071258;28;20516;-67
2022/01/13 12:50:22;;;;;;;11.77;7.63;;;10.90;99.90;;;;;;5071691;28;20502;-66
2022/01/13 12:52:50;;;;;;;14.27;7.17;;;10.90;99.90;;;;;;5072951;28;20451;-65
2022/01/13 12:55:18;;;;;;;10.90;7.47;;;11.00;99.90;;;;;;5072826;28;20457;-65
2022/01/13 12:57:50;;;;;;;11.57;7.97;;;11.00;99.90;;;;;;5073027;28;20465;-64
2022/01/13 13:00:19;;;;;;;11.98;7.15;;;10.90;99.90;;;;;;5073654;28;20442;-66
2022/01/13 13:02:56;;;;;;;11.63;7.80;;;11.10;99.90;;;;;;5083494;28;20233;-65